Kezdőlap
METAR-TAF:

METAR-TAF

Repülőterek :

Augsburg, Németország

földrajzi szélesség: 48-26N, földrajzi hosszúság: 010-56E, magasság: 461 m

Jelenlegi meteorológiai megfigyelések

A jelentés 15 perccel ezelõtt készült, 12:20 UTC
Nyugat-délnyugati szél 15 kt
Hőmérséklet 7°C
Páratartalom 57%
Légköri nyomás 1027 hPa
Látótávolság 10 km, vagy több
Szakadozott felhőzet 4100 lábon
Szakadozott felhőzet 4700 lábon
enyhe esõ

METAR: EDMA 181220Z 24015KT 9999 -RA BKN041 BKN047 07/M01 Q1027

Idő: 13:35 (12:35 UTC)

Előrejelzés

A jelentés 1 órával és 35 perccel ezelõtt készült, 11:00 UTC
Az előrejelzés 18-én 12 óra UTC és 18-én 21 óra UTC között érvényes
Nyugat-délnyugati szél 15 kt széllökések: 25 kt
Látótávolság 10 km, vagy több
Szórványos felhőzet 4000 lábon
18-én 15 óra UTC és 18-én 17 óra UTC között fokozatosan kialakuló
Nyugat-délnyugati szél 8 kt

TAF: EDMA 181100Z 1812/1821 25015G25KT 9999 SCT040 BECMG 1815/1817 24008KT

Meteorológiai megfigyelések és előrejelzések több, mint 4000 repülőtéren (METAR és TAF jelentéseket).

A térképen piros és sárga pontok jelzik az elérhető meteorológiai állomásokat.

Mozgassa az egeret a pont fölött, hogy megjelenjen az állomás neve.

Azután kattintson az időjárási megfigyelések és előrejelzések megtekintéséhez.

A térkép megváltoztatása: kattintson a fekete keresztel jelölt zöld gombra ráközelítéshez, a vonallal jelölt zöld gombra távolításhoz, vagy a zöld nyilakra a szomszédos térképek eléréséhez.


METAR-TAF: